createdAt,value
2018-11-06T00:00:08.731Z,0
2018-11-06T00:01:18.436Z,0
2018-11-06T00:02:27.609Z,0
2018-11-06T00:03:37.288Z,0
2018-11-06T00:04:46.715Z,0
2018-11-06T00:05:56.671Z,0
2018-11-06T00:07:06.346Z,0
2018-11-06T00:08:15.780Z,0
2018-11-06T00:09:26.188Z,0
2018-11-06T00:10:36.027Z,0
2018-11-06T00:11:45.725Z,0
2018-11-06T00:12:55.430Z,0
2018-11-06T00:14:05.129Z,0
2018-11-06T00:15:15.076Z,0
2018-11-06T00:16:24.777Z,0
2018-11-06T00:17:34.483Z,0
2018-11-06T00:18:44.184Z,0
2018-11-06T00:19:53.605Z,0
2018-11-06T00:21:03.553Z,0
2018-11-06T00:22:13.252Z,0
2018-11-06T00:23:22.966Z,0
2018-11-06T00:24:32.921Z,0
2018-11-06T00:25:42.866Z,0
2018-11-06T00:26:52.543Z,0
2018-11-06T00:28:02.261Z,0
2018-11-06T00:29:11.975Z,0
2018-11-06T00:30:21.927Z,0
2018-11-06T00:31:31.115Z,0
2018-11-06T00:32:40.536Z,0
2018-11-06T00:33:49.715Z,0
2018-11-06T00:34:59.134Z,0
2018-11-06T00:36:09.080Z,0
2018-11-06T00:37:19.034Z,0
2018-11-06T00:38:28.724Z,0
2018-11-06T00:39:38.410Z,0
2018-11-06T00:40:47.847Z,0
2018-11-06T00:41:57.814Z,0
2018-11-06T00:43:07.247Z,0
2018-11-06T00:44:16.940Z,0
2018-11-06T00:45:26.891Z,0
2018-11-06T00:46:36.592Z,0
2018-11-06T00:47:46.285Z,0
2018-11-06T00:48:56.233Z,0
2018-11-06T00:50:05.919Z,0
2018-11-06T00:51:15.336Z,0
2018-11-06T00:52:25.278Z,0
2018-11-06T00:53:34.710Z,0
2018-11-06T00:54:44.134Z,0
2018-11-06T00:55:53.571Z,0
2018-11-06T00:57:03.280Z,0
2018-11-06T00:58:12.981Z,0
2018-11-06T00:59:23.090Z,0
2018-11-06T01:00:32.437Z,0
2018-11-06T01:01:42.130Z,0
2018-11-06T01:02:51.829Z,0
2018-11-06T01:04:01.793Z,0
2018-11-06T01:05:11.483Z,0
2018-11-06T01:06:21.181Z,0
2018-11-06T01:07:30.601Z,0
2018-11-06T01:08:39.778Z,0
2018-11-06T01:09:49.216Z,0
2018-11-06T01:10:58.642Z,0
2018-11-06T01:12:08.602Z,0
2018-11-06T01:13:18.043Z,0
2018-11-06T01:14:27.494Z,0
2018-11-06T01:15:37.171Z,0
2018-11-06T01:16:46.870Z,0
2018-11-06T01:17:56.561Z,0
2018-11-06T01:19:06.253Z,0
2018-11-06T01:20:16.201Z,0
2018-11-06T01:21:26.140Z,0
2018-11-06T01:22:35.320Z,0
2018-11-06T01:23:45.004Z,0
2018-11-06T01:24:54.699Z,0
2018-11-06T01:26:04.387Z,0
2018-11-06T01:27:14.063Z,0
2018-11-06T01:28:23.739Z,0
2018-11-06T01:29:33.437Z,0
2018-11-06T01:30:42.858Z,0
2018-11-06T01:31:52.571Z,0
2018-11-06T01:33:01.996Z,0
2018-11-06T01:34:11.948Z,0
2018-11-06T01:35:21.121Z,0
2018-11-06T01:36:30.543Z,0
2018-11-06T01:37:40.482Z,0
2018-11-06T01:38:49.918Z,0
2018-11-06T01:39:59.876Z,0
2018-11-06T01:41:09.568Z,0
2018-11-06T01:42:18.994Z,0
2018-11-06T01:43:28.695Z,0
2018-11-06T01:44:38.389Z,0
2018-11-06T01:45:47.592Z,0
2018-11-06T01:46:57.292Z,0
2018-11-06T01:48:06.995Z,0
2018-11-06T01:49:16.938Z,0
2018-11-06T01:50:26.872Z,0
2018-11-06T01:51:36.810Z,0
2018-11-06T01:52:46.501Z,0
2018-11-06T01:53:56.205Z,0
2018-11-06T01:55:06.152Z,0
2018-11-06T01:56:16.091Z,0
2018-11-06T01:57:25.774Z,0
2018-11-06T01:58:35.465Z,0
2018-11-06T01:59:45.152Z,0
2018-11-06T02:00:54.595Z,0
2018-11-06T02:02:04.557Z,0
2018-11-06T02:03:14.501Z,0
2018-11-06T02:04:24.452Z,0
2018-11-06T02:05:34.134Z,0
2018-11-06T02:06:44.070Z,0
2018-11-06T02:07:53.770Z,0
2018-11-06T02:09:03.450Z,0
2018-11-06T02:10:12.859Z,0
2018-11-06T02:11:22.291Z,0
2018-11-06T02:12:32.246Z,0
2018-11-06T02:13:42.178Z,0
2018-11-06T02:14:52.123Z,0
2018-11-06T02:16:01.819Z,0
2018-11-06T02:17:11.526Z,0
2018-11-06T02:18:21.467Z,0
2018-11-06T02:19:31.417Z,0
2018-11-06T02:20:41.102Z,0
2018-11-06T02:21:50.781Z,0
2018-11-06T02:23:00.458Z,0
2018-11-06T02:24:09.906Z,0
2018-11-06T02:25:19.850Z,0
2018-11-06T02:26:29.546Z,0
2018-11-06T02:27:39.490Z,0
2018-11-06T02:28:48.922Z,0
2018-11-06T02:29:58.609Z,0
2018-11-06T02:31:08.549Z,0
2018-11-06T02:32:18.454Z,0
2018-11-06T02:33:28.614Z,0
2018-11-06T02:34:38.553Z,0
2018-11-06T02:35:48.499Z,0
2018-11-06T02:36:58.472Z,0
2018-11-06T02:38:08.440Z,0
2018-11-06T02:39:17.354Z,0
2018-11-06T02:40:27.310Z,0
2018-11-06T02:41:36.730Z,0
2018-11-06T02:42:45.896Z,0
2018-11-06T02:43:55.853Z,0
2018-11-06T02:45:05.798Z,0
2018-11-06T02:46:15.514Z,0
2018-11-06T02:47:25.463Z,0
2018-11-06T02:48:34.639Z,0
2018-11-06T02:49:44.578Z,0
2018-11-06T02:50:53.996Z,0
2018-11-06T02:52:03.947Z,0
2018-11-06T02:53:13.665Z,0
2018-11-06T02:54:23.826Z,0
2018-11-06T02:55:33.007Z,0
2018-11-06T02:56:42.693Z,0
2018-11-06T02:57:52.372Z,0
2018-11-06T02:59:02.329Z,0
2018-11-06T03:00:12.038Z,0
2018-11-06T03:01:21.720Z,0
2018-11-06T03:02:31.404Z,0
2018-11-06T03:03:41.097Z,0
2018-11-06T03:04:50.281Z,0
2018-11-06T03:05:59.738Z,0
2018-11-06T03:07:09.169Z,0
2018-11-06T03:08:19.102Z,0
2018-11-06T03:09:28.792Z,0
2018-11-06T03:10:38.634Z,0
2018-11-06T03:11:48.075Z,0
2018-11-06T03:12:58.019Z,0
2018-11-06T03:14:07.454Z,0
2018-11-06T03:15:17.139Z,0
2018-11-06T03:16:26.853Z,0
2018-11-06T03:17:36.019Z,0
2018-11-06T03:18:45.204Z,0
2018-11-06T03:19:54.913Z,0
2018-11-06T03:21:04.869Z,0
2018-11-06T03:22:14.839Z,0
2018-11-06T03:23:24.789Z,0
2018-11-06T03:24:34.225Z,0
2018-11-06T03:25:44.162Z,0
2018-11-06T03:26:54.024Z,0
2018-11-06T03:28:03.539Z,0
2018-11-06T03:29:12.975Z,0
2018-11-06T03:30:22.691Z,0
2018-11-06T03:31:32.124Z,0
2018-11-06T03:32:41.822Z,0
2018-11-06T03:33:51.784Z,0
2018-11-06T03:35:01.743Z,0
2018-11-06T03:36:11.684Z,0
2018-11-06T03:37:21.374Z,0
2018-11-06T03:38:31.317Z,0
2018-11-06T03:39:41.021Z,0
2018-11-06T03:40:50.725Z,0
2018-11-06T03:42:00.682Z,0
2018-11-06T03:43:10.636Z,0
2018-11-06T03:44:20.321Z,0
2018-11-06T03:45:30.004Z,0
2018-11-06T03:46:39.937Z,0
2018-11-06T03:47:49.617Z,0
2018-11-06T03:48:59.294Z,0
2018-11-06T03:50:09.010Z,0
2018-11-06T03:51:18.948Z,0
2018-11-06T03:52:28.636Z,0
2018-11-06T03:53:37.804Z,0
2018-11-06T03:54:47.240Z,0
2018-11-06T03:55:56.949Z,0
2018-11-06T03:57:06.893Z,0
2018-11-06T03:58:16.590Z,0
2018-11-06T03:59:26.276Z,0
2018-11-06T04:00:36.226Z,0
2018-11-06T04:01:45.914Z,0
2018-11-06T04:02:55.850Z,0
2018-11-06T04:04:05.793Z,0
2018-11-06T04:05:15.224Z,0
2018-11-06T04:06:24.917Z,0
2018-11-06T04:07:34.359Z,0
2018-11-06T04:08:44.065Z,0
2018-11-06T04:09:53.742Z,0
2018-11-06T04:11:03.439Z,0
2018-11-06T04:12:13.389Z,0
2018-11-06T04:13:22.568Z,0
2018-11-06T04:14:32.254Z,0
2018-11-06T04:15:41.435Z,0
2018-11-06T04:16:51.128Z,0
2018-11-06T04:18:00.556Z,0
2018-11-06T04:19:10.507Z,0
2018-11-06T04:20:20.213Z,0
2018-11-06T04:21:29.898Z,0
2018-11-06T04:22:39.600Z,0
2018-11-06T04:23:49.047Z,0
2018-11-06T04:24:58.725Z,0
2018-11-06T04:26:08.420Z,0
2018-11-06T04:27:17.862Z,0
2018-11-06T04:28:27.591Z,0
2018-11-06T04:29:37.530Z,0
2018-11-06T04:30:47.226Z,0
2018-11-06T04:31:57.196Z,0
2018-11-06T04:33:06.966Z,0
2018-11-06T04:34:16.931Z,0
2018-11-06T04:35:26.102Z,0
2018-11-06T04:36:35.794Z,0
2018-11-06T04:37:45.495Z,0
2018-11-06T04:38:54.913Z,0
2018-11-06T04:40:04.866Z,0
2018-11-06T04:41:14.570Z,0
2018-11-06T04:42:24.273Z,0
2018-11-06T04:43:33.699Z,0
2018-11-06T04:44:43.389Z,0
2018-11-06T04:45:53.080Z,0
2018-11-06T04:47:03.033Z,0
2018-11-06T04:48:12.724Z,0
2018-11-06T04:49:22.683Z,0
2018-11-06T04:50:32.121Z,0
2018-11-06T04:51:42.067Z,0
2018-11-06T04:52:51.254Z,0
2018-11-06T04:54:00.958Z,0
2018-11-06T04:55:10.651Z,0
2018-11-06T04:56:20.598Z,0
2018-11-06T04:57:30.299Z,0
2018-11-06T04:58:39.729Z,0
2018-11-06T04:59:49.412Z,0
2018-11-06T05:00:59.363Z,0
2018-11-06T05:02:08.998Z,0
2018-11-06T05:03:19.286Z,0
2018-11-06T05:04:28.479Z,0
2018-11-06T05:05:38.431Z,0
2018-11-06T05:06:48.311Z,0
2018-11-06T05:07:58.417Z,0
2018-11-06T05:09:07.856Z,0
2018-11-06T05:10:17.787Z,0
2018-11-06T05:11:27.744Z,0
2018-11-06T05:12:37.704Z,0
2018-11-06T05:13:47.421Z,0
2018-11-06T05:14:57.135Z,0
2018-11-06T05:16:07.084Z,0
2018-11-06T05:17:16.773Z,0
2018-11-06T05:18:26.764Z,0
2018-11-06T05:19:36.448Z,0
2018-11-06T05:20:46.403Z,0
2018-11-06T05:21:56.347Z,0
2018-11-06T05:23:05.760Z,0
2018-11-06T05:24:15.708Z,0
2018-11-06T05:25:25.227Z,0
2018-11-06T05:26:35.315Z,0
2018-11-06T05:27:45.000Z,0
2018-11-06T05:28:54.714Z,0
2018-11-06T05:30:04.670Z,0
2018-11-06T05:31:14.365Z,4
2018-11-06T05:32:24.056Z,0
2018-11-06T05:33:33.998Z,0
2018-11-06T05:34:43.945Z,4
2018-11-06T05:35:54.056Z,4
2018-11-06T05:37:04.011Z,4
2018-11-06T05:38:13.702Z,4
2018-11-06T05:39:23.782Z,8
2018-11-06T05:40:33.536Z,8
2018-11-06T05:41:43.481Z,8
2018-11-06T05:42:53.182Z,12
2018-11-06T05:44:02.817Z,16
2018-11-06T05:45:12.737Z,16
2018-11-06T05:46:23.096Z,20
2018-11-06T05:47:32.795Z,24
2018-11-06T05:48:41.696Z,28
2018-11-06T05:49:51.685Z,36
2018-11-06T05:51:01.628Z,44
2018-11-06T05:52:11.317Z,52
2018-11-06T05:53:21.653Z,68
2018-11-06T05:54:31.793Z,80
2018-11-06T05:55:41.243Z,92
2018-11-06T05:56:50.948Z,112
2018-11-06T05:58:00.643Z,136
2018-11-06T05:59:10.376Z,156
2018-11-06T06:00:20.407Z,180
2018-11-06T06:01:30.135Z,212
2018-11-06T06:02:39.584Z,244
2018-11-06T06:03:49.538Z,276
2018-11-06T06:04:59.235Z,312
2018-11-06T06:06:08.923Z,352
2018-11-06T06:07:18.616Z,400
2018-11-06T06:08:28.309Z,448
2018-11-06T06:09:37.751Z,492
2018-11-06T06:10:47.438Z,548
2018-11-06T06:11:57.397Z,600
2018-11-06T06:13:07.338Z,660
2018-11-06T06:14:17.035Z,724
2018-11-06T06:15:26.216Z,788
2018-11-06T06:16:36.047Z,856
2018-11-06T06:17:46.114Z,924
2018-11-06T06:18:55.298Z,996
2018-11-06T06:20:05.248Z,1076
2018-11-06T06:21:15.199Z,1156
2018-11-06T06:22:25.042Z,1236
2018-11-06T06:23:35.113Z,1316
2018-11-06T06:24:44.558Z,1396
2018-11-06T06:25:54.244Z,1476
2018-11-06T06:27:03.933Z,1564
2018-11-06T06:28:13.421Z,1648
2018-11-06T06:29:23.385Z,1740
2018-11-06T06:30:33.358Z,1828
2018-11-06T06:31:43.335Z,1920
2018-11-06T06:32:53.059Z,2012
2018-11-06T06:34:02.810Z,2108
2018-11-06T06:35:13.382Z,2196
2018-11-06T06:36:23.358Z,2296
2018-11-06T06:37:33.292Z,2392
2018-11-06T06:38:43.678Z,2484
2018-11-06T06:39:53.969Z,2580
2018-11-06T06:41:04.524Z,2668
2018-11-06T06:42:14.058Z,2756
2018-11-06T06:43:23.767Z,2828
2018-11-06T06:44:33.481Z,2868
2018-11-06T06:45:43.471Z,2900
2018-11-06T06:46:52.616Z,2960
2018-11-06T06:48:02.326Z,3064
2018-11-06T06:49:12.010Z,3224
2018-11-06T06:50:21.710Z,3428
2018-11-06T06:51:31.402Z,3600
2018-11-06T06:52:41.103Z,3728
2018-11-06T06:53:50.955Z,3828
2018-11-06T06:55:01.104Z,3928
2018-11-06T06:56:10.873Z,4036
2018-11-06T06:57:20.588Z,4148
2018-11-06T06:58:30.575Z,4248
2018-11-06T06:59:40.272Z,4352
2018-11-06T07:00:49.966Z,4448
2018-11-06T07:01:59.678Z,4540
2018-11-06T07:03:09.203Z,4636
2018-11-06T07:04:18.632Z,4732
2018-11-06T07:05:28.330Z,4832
2018-11-06T07:06:37.784Z,4924
2018-11-06T07:07:47.481Z,5024
2018-11-06T07:08:57.192Z,5124
2018-11-06T07:10:07.172Z,5228
2018-11-06T07:11:17.110Z,5328
2018-11-06T07:12:26.789Z,5428
2018-11-06T07:13:36.482Z,5524
2018-11-06T07:14:46.271Z,5608
2018-11-06T07:15:55.970Z,5684
2018-11-06T07:17:05.666Z,5780
2018-11-06T07:18:14.855Z,5872
2018-11-06T07:19:24.288Z,5972
2018-11-06T07:20:33.971Z,6068
2018-11-06T07:21:43.936Z,6160
2018-11-06T07:22:53.374Z,6248
2018-11-06T07:24:02.806Z,6336
2018-11-06T07:25:11.992Z,6432
2018-11-06T07:26:21.685Z,6520
2018-11-06T07:27:31.635Z,6624
2018-11-06T07:28:41.447Z,6716
2018-11-06T07:29:51.506Z,6800
2018-11-06T07:31:00.960Z,6884
2018-11-06T07:32:10.652Z,6964
2018-11-06T07:33:20.342Z,7052
2018-11-06T07:34:30.505Z,7148
2018-11-06T07:35:41.203Z,7244
2018-11-06T07:36:50.750Z,7344
2018-11-06T07:38:00.211Z,7904
2018-11-06T07:39:10.175Z,8392
2018-11-06T07:40:20.167Z,8540
2018-11-06T07:41:30.223Z,8728
2018-11-06T07:42:39.679Z,8956
2018-11-06T07:43:48.338Z,9220
2018-11-06T07:44:58.278Z,9320
2018-11-06T07:46:08.226Z,9684
2018-11-06T07:47:18.183Z,10052
2018-11-06T07:48:28.116Z,10224
2018-11-06T07:49:37.550Z,10576
2018-11-06T07:50:47.241Z,10688
2018-11-06T07:51:56.938Z,11060
2018-11-06T07:53:06.638Z,11160
2018-11-06T07:54:16.342Z,11460
2018-11-06T07:55:26.361Z,11840
2018-11-06T07:56:35.808Z,12072
2018-11-06T07:57:45.247Z,12212
2018-11-06T07:58:54.697Z,12712
2018-11-06T08:00:04.397Z,12912
2018-11-06T08:01:14.106Z,12868
2018-11-06T08:02:24.079Z,13424
2018-11-06T08:03:33.780Z,13344
2018-11-06T08:04:43.468Z,13812
2018-11-06T08:05:53.162Z,14232
2018-11-06T08:07:03.376Z,14588
2018-11-06T08:08:12.566Z,14844
2018-11-06T08:09:22.048Z,15572
2018-11-06T08:10:32.048Z,16320
2018-11-06T08:11:42.027Z,16032
2018-11-06T08:12:51.744Z,16768
2018-11-06T08:14:01.707Z,17184
2018-11-06T08:15:11.890Z,17728
2018-11-06T08:16:21.908Z,17664
2018-11-06T08:17:31.614Z,18560
2018-11-06T08:18:41.582Z,18592
2018-11-06T08:19:51.300Z,18912
2018-11-06T08:21:00.992Z,19168
2018-11-06T08:22:11.011Z,19648
2018-11-06T08:23:20.718Z,20448
2018-11-06T08:24:30.202Z,20512
2018-11-06T08:25:39.389Z,21728
2018-11-06T08:26:49.091Z,21984
2018-11-06T08:27:59.534Z,22240
2018-11-06T08:29:09.230Z,22272
2018-11-06T08:30:19.162Z,23168
2018-11-06T08:31:30.390Z,23424
2018-11-06T08:32:43.437Z,24128
2018-11-06T08:33:54.094Z,24704
2018-11-06T08:35:04.133Z,25472
2018-11-06T08:36:14.102Z,25600
2018-11-06T08:37:23.553Z,27072
2018-11-06T08:38:33.275Z,28000
2018-11-06T08:39:43.240Z,27264
2018-11-06T08:40:52.686Z,27392
2018-11-06T08:42:02.133Z,28160
2018-11-06T08:43:12.122Z,29184
2018-11-06T08:44:21.811Z,29280
2018-11-06T08:45:31.762Z,30176
2018-11-06T08:46:41.504Z,31232
2018-11-06T08:47:51.242Z,31616
2018-11-06T08:49:00.931Z,32256
2018-11-06T08:50:09.857Z,32224
2018-11-06T08:51:19.555Z,32192
2018-11-06T08:52:29.540Z,33536
2018-11-06T08:53:38.464Z,34304
2018-11-06T08:54:48.984Z,34528
2018-11-06T08:55:58.963Z,34912
2018-11-06T08:57:08.653Z,35456
2018-11-06T08:58:18.341Z,36832
2018-11-06T08:59:28.314Z,37056
2018-11-06T09:00:37.769Z,37184
2018-11-06T09:01:47.480Z,38368
2018-11-06T09:02:57.243Z,38784
2018-11-06T09:04:06.944Z,38688
2018-11-06T09:05:16.937Z,39744
2018-11-06T09:06:26.928Z,40480
2018-11-06T09:07:36.382Z,41792
2018-11-06T09:08:46.320Z,42944
2018-11-06T09:09:55.855Z,42400
2018-11-06T09:11:05.564Z,41344
2018-11-06T09:12:15.270Z,41824
2018-11-06T09:13:25.281Z,42048
2018-11-06T09:14:35.035Z,42400
2018-11-06T09:15:45.008Z,43936
2018-11-06T09:16:55.080Z,44992
2018-11-06T09:18:04.834Z,44096
2018-11-06T09:19:14.857Z,45056
2018-11-06T09:20:24.554Z,45984
2018-11-06T09:21:34.535Z,44608
2018-11-06T09:22:44.434Z,46016
2018-11-06T09:23:53.876Z,46240
2018-11-06T09:25:03.334Z,46752
2018-11-06T09:26:13.307Z,48416
2018-11-06T09:27:22.762Z,49696
2018-11-06T09:28:32.693Z,49184
2018-11-06T09:29:42.682Z,49408
2018-11-06T09:30:52.292Z,50848
2018-11-06T09:32:02.141Z,51008
2018-11-06T09:33:12.137Z,51200
2018-11-06T09:34:22.118Z,52960
2018-11-06T09:35:32.115Z,52896
2018-11-06T09:36:41.582Z,53152
2018-11-06T09:37:51.578Z,55040
2018-11-06T09:39:01.538Z,55744
2018-11-06T09:40:10.983Z,54816
2018-11-06T09:41:21.200Z,53440
2018-11-06T09:42:31.047Z,54880
2018-11-06T09:43:41.037Z,56896
2018-11-06T09:44:50.742Z,57760
2018-11-06T09:46:00.798Z,59680
2018-11-06T09:47:10.273Z,60448
2018-11-06T09:48:19.747Z,60160
2018-11-06T09:49:29.722Z,60096
2018-11-06T09:50:39.481Z,61152
2018-11-06T09:51:49.520Z,60768
2018-11-06T09:52:59.308Z,61888
2018-11-06T09:54:09.047Z,62432
2018-11-06T09:55:18.486Z,63328
2018-11-06T09:56:28.180Z,61472
2018-11-06T09:57:37.902Z,62720
2018-11-06T09:58:47.633Z,62912
2018-11-06T09:59:57.372Z,64160
2018-11-06T10:01:06.852Z,63296
2018-11-06T10:02:16.821Z,66400
2018-11-06T10:03:26.525Z,68096
2018-11-06T10:04:35.725Z,70208
2018-11-06T10:05:45.218Z,67808
2018-11-06T10:06:56.562Z,68128
2018-11-06T10:08:06.316Z,72000
2018-11-06T10:09:15.909Z,74400
2018-11-06T10:10:26.027Z,71040
2018-11-06T10:11:35.970Z,65056
2018-11-06T10:12:45.664Z,69664
2018-11-06T10:13:55.370Z,69376
2018-11-06T10:15:05.328Z,70144
2018-11-06T10:16:14.769Z,71200
2018-11-06T10:17:24.461Z,72384
2018-11-06T10:18:33.891Z,70112
2018-11-06T10:19:43.587Z,70464
2018-11-06T10:20:53.059Z,69984
2018-11-06T10:22:02.759Z,70688
2018-11-06T10:23:12.215Z,72544
2018-11-06T10:24:22.164Z,74528
2018-11-06T10:25:31.861Z,77088
2018-11-06T10:26:41.841Z,74080
2018-11-06T10:27:51.577Z,75360
2018-11-06T10:29:01.276Z,72352
2018-11-06T10:30:10.726Z,75840
2018-11-06T10:31:20.202Z,73984
2018-11-06T10:32:30.174Z,77504
2018-11-06T10:33:39.881Z,78912
2018-11-06T10:34:49.319Z,80704
2018-11-06T10:35:59.285Z,80032
2018-11-06T10:37:09.255Z,80160
2018-11-06T10:38:19.434Z,80864
2018-11-06T10:39:29.438Z,77536
2018-11-06T10:40:39.183Z,78496
2018-11-06T10:41:48.890Z,75808
2018-11-06T10:42:58.840Z,75744
2018-11-06T10:44:08.547Z,79328
2018-11-06T10:45:18.001Z,82592
2018-11-06T10:46:27.984Z,79072
2018-11-06T10:47:37.937Z,82400
2018-11-06T10:48:47.634Z,80960
2018-11-06T10:49:57.556Z,83008
2018-11-06T10:51:06.991Z,76864
2018-11-06T10:52:16.975Z,80704
2018-11-06T10:53:26.747Z,82976
2018-11-06T10:54:36.726Z,82912
2018-11-06T10:55:46.707Z,78848
2018-11-06T10:56:56.692Z,82336
2018-11-06T10:58:07.009Z,85440
2018-11-06T10:59:16.588Z,79648
2018-11-06T11:00:26.654Z,83456
2018-11-06T11:01:36.375Z,82752
2018-11-06T11:02:46.063Z,82400
2018-11-06T11:03:55.801Z,82720
2018-11-06T11:05:05.577Z,83136
2018-11-06T11:06:15.029Z,83072
2018-11-06T11:07:24.472Z,81536
2018-11-06T11:08:34.438Z,88256
2018-11-06T11:09:44.423Z,81920
2018-11-06T11:10:54.400Z,85056
2018-11-06T11:12:04.111Z,86784
2018-11-06T11:13:13.873Z,82624
2018-11-06T11:14:23.669Z,85792
2018-11-06T11:15:33.631Z,84672
2018-11-06T11:16:43.590Z,86176
2018-11-06T11:17:53.275Z,85472
2018-11-06T11:19:02.989Z,86112
2018-11-06T11:20:12.609Z,82752
2018-11-06T11:21:22.549Z,82848
2018-11-06T11:22:32.657Z,86688
2018-11-06T11:23:42.102Z,87552
2018-11-06T11:24:51.834Z,81440
2018-11-06T11:26:01.523Z,86592
2018-11-06T11:27:11.487Z,85920
2018-11-06T11:28:21.180Z,84032
2018-11-06T11:29:31.149Z,87232
2018-11-06T11:30:40.865Z,85536
2018-11-06T11:31:50.833Z,86880
2018-11-06T11:33:00.556Z,89536
2018-11-06T11:34:10.030Z,84000
2018-11-06T11:35:19.796Z,85152
2018-11-06T11:36:29.786Z,87584
2018-11-06T11:37:39.684Z,85152
2018-11-06T11:38:49.866Z,86400
2018-11-06T11:39:59.825Z,86176
2018-11-06T11:41:09.538Z,85952
2018-11-06T11:42:18.707Z,88096
2018-11-06T11:43:28.459Z,78816
2018-11-06T11:44:37.912Z,82848
2018-11-06T11:45:48.046Z,79360
2018-11-06T11:46:57.680Z,80576
2018-11-06T11:48:07.659Z,77664
2018-11-06T11:49:17.631Z,75104
2018-11-06T11:50:27.339Z,77472
2018-11-06T11:51:36.790Z,73472
2018-11-06T11:52:45.765Z,87232
2018-11-06T11:53:55.756Z,84096
2018-11-06T11:55:05.739Z,90688
2018-11-06T11:56:15.477Z,83840
2018-11-06T11:57:25.438Z,87264
2018-11-06T11:58:35.370Z,79968
2018-11-06T11:59:45.413Z,84288
2018-11-06T12:00:54.879Z,79456
2018-11-06T12:02:04.994Z,78080
2018-11-06T12:03:14.836Z,81280
2018-11-06T12:04:24.896Z,85664
2018-11-06T12:05:34.959Z,84512
2018-11-06T12:06:44.661Z,91456
2018-11-06T12:07:54.362Z,94336
2018-11-06T12:09:04.317Z,88928
2018-11-06T12:10:13.768Z,91488
2018-11-06T12:11:23.837Z,88448
2018-11-06T12:12:33.553Z,84160
2018-11-06T12:13:42.744Z,89760
2018-11-06T12:14:52.460Z,84192
2018-11-06T12:16:02.426Z,89280
2018-11-06T12:17:12.183Z,87968
2018-11-06T12:18:22.605Z,83040
2018-11-06T12:19:32.710Z,85696
2018-11-06T12:20:42.678Z,87712
2018-11-06T12:21:52.121Z,90688
2018-11-06T12:23:02.080Z,80640
2018-11-06T12:24:12.127Z,84704
2018-11-06T12:25:24.414Z,94368
2018-11-06T12:26:34.643Z,81696
2018-11-06T12:27:44.367Z,80416
2018-11-06T12:28:54.329Z,86240
2018-11-06T12:30:04.034Z,76128
2018-11-06T12:31:13.722Z,77696
2018-11-06T12:32:23.546Z,84576
2018-11-06T12:33:33.585Z,82656
2018-11-06T12:34:43.350Z,80256
2018-11-06T12:35:52.875Z,84288
2018-11-06T12:37:02.659Z,75264
2018-11-06T12:38:12.556Z,77120
2018-11-06T12:39:21.766Z,79968
2018-11-06T12:40:31.745Z,71456
2018-11-06T12:41:41.454Z,84576
2018-11-06T12:42:51.038Z,76864
2018-11-06T12:44:00.768Z,52064
2018-11-06T12:45:09.960Z,65696
2018-11-06T12:46:19.425Z,72288
2018-11-06T12:47:29.145Z,79968
2018-11-06T12:48:39.158Z,75456
2018-11-06T12:49:48.597Z,84544
2018-11-06T12:50:58.581Z,77664
2018-11-06T12:52:07.767Z,79680
2018-11-06T12:53:17.729Z,83872
2018-11-06T12:54:27.699Z,71104
2018-11-06T12:55:37.394Z,74080
2018-11-06T12:56:47.086Z,74592
2018-11-06T12:57:56.540Z,67648
2018-11-06T12:59:05.992Z,73184
2018-11-06T13:00:15.945Z,80160
2018-11-06T13:01:25.674Z,82208
2018-11-06T13:02:34.879Z,74720
2018-11-06T13:03:44.839Z,80288
2018-11-06T13:04:54.813Z,84096
2018-11-06T13:06:04.556Z,80480
2018-11-06T13:07:14.516Z,72096
2018-11-06T13:08:24.238Z,74912
2018-11-06T13:09:34.210Z,75840
2018-11-06T13:10:44.155Z,71872
2018-11-06T13:11:53.883Z,74048
2018-11-06T13:13:03.606Z,77568
2018-11-06T13:14:13.580Z,72928
2018-11-06T13:15:25.305Z,72416
2018-11-06T13:16:34.662Z,68768
2018-11-06T13:17:44.616Z,63744
2018-11-06T13:18:54.148Z,66176
2018-11-06T13:20:03.595Z,68352
2018-11-06T13:21:13.297Z,65696
2018-11-06T13:22:22.980Z,67872
2018-11-06T13:23:32.954Z,66944
2018-11-06T13:24:42.658Z,68096
2018-11-06T13:25:52.675Z,66560
2018-11-06T13:27:02.506Z,65824
2018-11-06T13:28:11.939Z,68768
2018-11-06T13:29:21.646Z,65536
2018-11-06T13:30:31.500Z,65408
2018-11-06T13:31:41.012Z,73248
2018-11-06T13:32:50.466Z,64224
2018-11-06T13:34:00.434Z,67072
2018-11-06T13:35:09.874Z,62304
2018-11-06T13:36:19.330Z,65536
2018-11-06T13:37:29.029Z,64768
2018-11-06T13:38:38.731Z,63136
2018-11-06T13:39:48.438Z,65952
2018-11-06T13:40:58.150Z,63104
2018-11-06T13:42:08.072Z,60512
2018-11-06T13:43:18.518Z,54432
2018-11-06T13:44:31.109Z,60192
2018-11-06T13:45:41.358Z,58880
2018-11-06T13:46:51.925Z,58016
2018-11-06T13:48:01.370Z,54720
2018-11-06T13:49:11.090Z,55712
2018-11-06T13:50:21.068Z,58528
2018-11-06T13:51:30.509Z,54624
2018-11-06T13:52:40.210Z,57600
2018-11-06T13:53:49.954Z,52384
2018-11-06T13:54:59.414Z,51776
2018-11-06T13:56:09.371Z,52480
2018-11-06T13:57:19.090Z,51904
2018-11-06T13:58:28.798Z,52896
2018-11-06T13:59:38.826Z,33632
2018-11-06T14:00:48.535Z,29600
2018-11-06T14:01:58.257Z,49792
2018-11-06T14:03:08.246Z,49568
2018-11-06T14:04:18.097Z,47392
2018-11-06T14:05:27.894Z,49280
2018-11-06T14:06:37.852Z,45824
2018-11-06T14:07:47.867Z,46400
2018-11-06T14:08:57.557Z,48352
2018-11-06T14:10:07.530Z,48064
2018-11-06T14:11:17.503Z,51616
2018-11-06T14:12:26.962Z,44224
2018-11-06T14:13:36.915Z,42112
2018-11-06T14:14:46.611Z,41440
2018-11-06T14:15:56.562Z,40416
2018-11-06T14:17:06.004Z,41216
2018-11-06T14:18:15.977Z,37024
2018-11-06T14:19:25.933Z,38816
2018-11-06T14:20:35.632Z,36576
2018-11-06T14:21:45.334Z,33120
2018-11-06T14:22:55.304Z,34304
2018-11-06T14:24:04.776Z,31040
2018-11-06T14:25:14.739Z,34752
2018-11-06T14:26:23.665Z,35616
2018-11-06T14:27:34.131Z,31904
2018-11-06T14:28:43.855Z,30944
2018-11-06T14:29:53.809Z,31808
2018-11-06T14:31:03.809Z,28320
2018-11-06T14:32:13.766Z,28480
2018-11-06T14:33:23.203Z,28640
2018-11-06T14:34:32.901Z,24864
2018-11-06T14:35:43.046Z,23904
2018-11-06T14:36:53.031Z,21920
2018-11-06T14:38:02.220Z,21888
2018-11-06T14:39:11.924Z,23168
2018-11-06T14:40:21.374Z,19488
2018-11-06T14:41:31.328Z,20992
2018-11-06T14:42:41.521Z,19488
2018-11-06T14:43:51.349Z,18720
2018-11-06T14:45:01.333Z,18144
2018-11-06T14:46:10.781Z,15904
2018-11-06T14:47:20.482Z,15616
2018-11-06T14:48:30.793Z,14560
2018-11-06T14:49:40.644Z,13312
2018-11-06T14:50:50.354Z,12768
2018-11-06T14:52:00.328Z,11872
2018-11-06T14:53:10.035Z,9516
2018-11-06T14:54:20.011Z,6544
2018-11-06T14:55:29.952Z,4272
2018-11-06T14:56:39.679Z,3864
2018-11-06T14:57:49.665Z,3800
2018-11-06T14:58:59.362Z,3692
2018-11-06T15:00:09.062Z,3504
2018-11-06T15:01:18.497Z,3192
2018-11-06T15:02:28.495Z,2860
2018-11-06T15:03:38.182Z,2604
2018-11-06T15:04:48.201Z,2464
2018-11-06T15:05:57.915Z,2376
2018-11-06T15:07:07.112Z,2256
2018-11-06T15:08:17.091Z,2084
2018-11-06T15:09:26.793Z,1908
2018-11-06T15:10:36.750Z,1764
2018-11-06T15:11:46.191Z,1644
2018-11-06T15:12:55.934Z,1540
2018-11-06T15:14:05.890Z,1436
2018-11-06T15:15:15.343Z,1340
2018-11-06T15:16:24.287Z,1256
2018-11-06T15:17:33.997Z,1172
2018-11-06T15:18:43.965Z,1092
2018-11-06T15:19:53.418Z,1016
2018-11-06T15:21:03.436Z,948
2018-11-06T15:22:12.884Z,880
2018-11-06T15:23:22.324Z,820
2018-11-06T15:24:32.034Z,756
2018-11-06T15:25:41.741Z,704
2018-11-06T15:26:51.458Z,648
2018-11-06T15:28:01.190Z,600
2018-11-06T15:29:10.919Z,552
2018-11-06T15:30:20.619Z,508
2018-11-06T15:31:30.320Z,464
2018-11-06T15:32:40.027Z,420
2018-11-06T15:33:50.007Z,384
2018-11-06T15:34:59.458Z,348
2018-11-06T15:36:09.160Z,312
2018-11-06T15:37:18.613Z,280
2018-11-06T15:38:28.068Z,248
2018-11-06T15:39:37.776Z,220
2018-11-06T15:40:47.810Z,196
2018-11-06T15:41:57.987Z,172
2018-11-06T15:43:08.113Z,144
2018-11-06T15:44:17.558Z,128
2018-11-06T15:45:27.065Z,108
2018-11-06T15:46:36.767Z,92
2018-11-06T15:47:46.747Z,76
2018-11-06T15:48:57.184Z,64
2018-11-06T15:50:07.341Z,52
2018-11-06T15:51:16.522Z,44